sensor_id;sensor_type;location;lat;lon;timestamp;P1;durP1;ratioP1;P2;durP2;ratioP2
71042;SDS011;58696;52.134;5.500;2023-12-22T00:00:47;13.75;;;1.98;;
71042;SDS011;58696;52.134;5.500;2023-12-22T00:03:15;8.98;;;1.90;;
71042;SDS011;58696;52.134;5.500;2023-12-22T00:05:44;7.97;;;1.92;;
71042;SDS011;58696;52.134;5.500;2023-12-22T00:08:11;9.82;;;1.83;;
71042;SDS011;58696;52.134;5.500;2023-12-22T00:10:38;3.15;;;0.80;;
71042;SDS011;58696;52.134;5.500;2023-12-22T00:13:07;2.20;;;1.15;;
71042;SDS011;58696;52.134;5.500;2023-12-22T00:15:36;3.45;;;1.10;;
71042;SDS011;58696;52.134;5.500;2023-12-22T00:18:05;2.90;;;0.93;;
71042;SDS011;58696;52.134;5.500;2023-12-22T00:20:32;3.00;;;1.08;;
71042;SDS011;58696;52.134;5.500;2023-12-22T00:22:59;4.32;;;0.55;;
71042;SDS011;58696;52.134;5.500;2023-12-22T00:25:26;3.13;;;0.95;;
71042;SDS011;58696;52.134;5.500;2023-12-22T00:27:58;0.32;;;0.13;;
71042;SDS011;58696;52.134;5.500;2023-12-22T00:30:24;0.77;;;0.47;;
71042;SDS011;58696;52.134;5.500;2023-12-22T00:32:51;4.72;;;1.20;;
71042;SDS011;58696;52.134;5.500;2023-12-22T00:35:18;5.40;;;0.75;;
71042;SDS011;58696;52.134;5.500;2023-12-22T00:37:47;7.85;;;0.80;;
71042;SDS011;58696;52.134;5.500;2023-12-22T00:40:14;0.52;;;0.25;;
71042;SDS011;58696;52.134;5.500;2023-12-22T00:42:40;5.75;;;1.00;;
71042;SDS011;58696;52.134;5.500;2023-12-22T00:45:09;2.65;;;0.70;;
71042;SDS011;58696;52.134;5.500;2023-12-22T00:47:38;6.65;;;1.23;;
71042;SDS011;58696;52.134;5.500;2023-12-22T00:50:05;4.65;;;0.57;;
71042;SDS011;58696;52.134;5.500;2023-12-22T00:52:35;4.45;;;0.80;;
71042;SDS011;58696;52.134;5.500;2023-12-22T00:55:04;2.25;;;0.90;;
71042;SDS011;58696;52.134;5.500;2023-12-22T00:57:31;3.45;;;0.63;;
71042;SDS011;58696;52.134;5.500;2023-12-22T01:00:04;6.18;;;1.05;;
71042;SDS011;58696;52.134;5.500;2023-12-22T01:02:34;4.82;;;0.70;;
71042;SDS011;58696;52.134;5.500;2023-12-22T01:05:01;5.95;;;1.08;;
71042;SDS011;58696;52.134;5.500;2023-12-22T01:07:30;3.03;;;0.80;;
71042;SDS011;58696;52.134;5.500;2023-12-22T01:09:57;2.00;;;0.82;;
71042;SDS011;58696;52.134;5.500;2023-12-22T01:12:30;5.10;;;1.02;;
71042;SDS011;58696;52.134;5.500;2023-12-22T01:14:57;8.43;;;1.15;;
71042;SDS011;58696;52.134;5.500;2023-12-22T01:17:24;9.18;;;1.38;;
71042;SDS011;58696;52.134;5.500;2023-12-22T01:19:55;5.30;;;1.00;;
71042;SDS011;58696;52.134;5.500;2023-12-22T01:22:22;9.35;;;0.75;;
71042;SDS011;58696;52.134;5.500;2023-12-22T01:24:51;5.85;;;1.15;;
71042;SDS011;58696;52.134;5.500;2023-12-22T01:27:23;7.30;;;1.13;;
71042;SDS011;58696;52.134;5.500;2023-12-22T01:29:49;6.63;;;1.30;;
71042;SDS011;58696;52.134;5.500;2023-12-22T01:32:16;3.80;;;0.98;;
71042;SDS011;58696;52.134;5.500;2023-12-22T01:34:45;6.38;;;1.45;;
71042;SDS011;58696;52.134;5.500;2023-12-22T01:37:11;8.02;;;1.40;;
71042;SDS011;58696;52.134;5.500;2023-12-22T01:39:42;10.82;;;1.02;;
71042;SDS011;58696;52.134;5.500;2023-12-22T01:42:08;3.13;;;0.80;;
71042;SDS011;58696;52.134;5.500;2023-12-22T01:44:37;8.50;;;1.40;;
71042;SDS011;58696;52.134;5.500;2023-12-22T01:47:06;2.17;;;0.57;;
71042;SDS011;58696;52.134;5.500;2023-12-22T01:49:35;3.88;;;1.25;;
71042;SDS011;58696;52.134;5.500;2023-12-22T01:52:02;7.07;;;1.30;;
71042;SDS011;58696;52.134;5.500;2023-12-22T01:54:28;7.13;;;1.42;;
71042;SDS011;58696;52.134;5.500;2023-12-22T01:56:56;4.75;;;0.82;;
71042;SDS011;58696;52.134;5.500;2023-12-22T01:59:25;1.92;;;0.70;;
71042;SDS011;58696;52.134;5.500;2023-12-22T02:01:57;7.57;;;1.02;;
71042;SDS011;58696;52.134;5.500;2023-12-22T02:04:23;8.15;;;1.40;;
71042;SDS011;58696;52.134;5.500;2023-12-22T02:06:54;2.80;;;0.47;;
71042;SDS011;58696;52.134;5.500;2023-12-22T02:09:20;4.68;;;1.05;;
71042;SDS011;58696;52.134;5.500;2023-12-22T02:11:47;7.88;;;1.27;;
71042;SDS011;58696;52.134;5.500;2023-12-22T02:14:18;9.98;;;1.40;;
71042;SDS011;58696;52.134;5.500;2023-12-22T02:16:54;5.78;;;1.27;;
71042;SDS011;58696;52.134;5.500;2023-12-22T02:22:06;4.68;;;1.45;;
71042;SDS011;58696;52.134;5.500;2023-12-22T02:24:35;10.70;;;1.60;;
71042;SDS011;58696;52.134;5.500;2023-12-22T02:27:06;10.25;;;1.83;;
71042;SDS011;58696;52.134;5.500;2023-12-22T02:32:48;8.77;;;2.10;;
71042;SDS011;58696;52.134;5.500;2023-12-22T02:35:21;14.13;;;1.75;;
71042;SDS011;58696;52.134;5.500;2023-12-22T02:37:50;6.82;;;1.50;;
71042;SDS011;58696;52.134;5.500;2023-12-22T02:40:19;7.13;;;1.13;;
71042;SDS011;58696;52.134;5.500;2023-12-22T02:42:46;13.77;;;2.20;;
71042;SDS011;58696;52.134;5.500;2023-12-22T02:45:15;8.32;;;1.92;;
71042;SDS011;58696;52.134;5.500;2023-12-22T02:47:43;9.55;;;1.83;;
71042;SDS011;58696;52.134;5.500;2023-12-22T02:50:10;11.75;;;1.70;;
71042;SDS011;58696;52.134;5.500;2023-12-22T02:52:42;10.38;;;2.45;;
71042;SDS011;58696;52.134;5.500;2023-12-22T02:55:09;10.48;;;1.92;;
71042;SDS011;58696;52.134;5.500;2023-12-22T02:57:36;6.68;;;1.88;;
71042;SDS011;58696;52.134;5.500;2023-12-22T03:00:04;4.57;;;1.33;;
71042;SDS011;58696;52.134;5.500;2023-12-22T03:02:33;13.35;;;2.33;;
71042;SDS011;58696;52.134;5.500;2023-12-22T03:05:00;20.50;;;2.50;;
71042;SDS011;58696;52.134;5.500;2023-12-22T03:07:26;8.15;;;1.90;;
71042;SDS011;58696;52.134;5.500;2023-12-22T03:09:53;11.25;;;1.95;;
71042;SDS011;58696;52.134;5.500;2023-12-22T03:12:24;5.65;;;1.13;;
71042;SDS011;58696;52.134;5.500;2023-12-22T03:14:54;4.70;;;1.13;;
71042;SDS011;58696;52.134;5.500;2023-12-22T03:17:20;5.50;;;1.33;;
71042;SDS011;58696;52.134;5.500;2023-12-22T03:19:47;3.05;;;0.68;;
71042;SDS011;58696;52.134;5.500;2023-12-22T03:22:16;3.60;;;1.10;;
71042;SDS011;58696;52.134;5.500;2023-12-22T03:24:45;5.70;;;1.55;;
71042;SDS011;58696;52.134;5.500;2023-12-22T03:27:14;4.97;;;1.13;;
71042;SDS011;58696;52.134;5.500;2023-12-22T03:29:44;6.40;;;0.95;;
71042;SDS011;58696;52.134;5.500;2023-12-22T03:32:11;2.92;;;1.02;;
71042;SDS011;58696;52.134;5.500;2023-12-22T03:34:38;3.75;;;0.98;;
71042;SDS011;58696;52.134;5.500;2023-12-22T03:37:07;5.35;;;0.77;;
71042;SDS011;58696;52.134;5.500;2023-12-22T03:39:34;3.08;;;1.02;;
71042;SDS011;58696;52.134;5.500;2023-12-22T03:42:01;0.43;;;0.30;;
71042;SDS011;58696;52.134;5.500;2023-12-22T03:44:30;2.60;;;0.82;;
71042;SDS011;58696;52.134;5.500;2023-12-22T03:46:59;4.97;;;0.85;;
71042;SDS011;58696;52.134;5.500;2023-12-22T03:49:25;5.70;;;0.98;;
71042;SDS011;58696;52.134;5.500;2023-12-22T03:51:52;5.63;;;0.75;;
71042;SDS011;58696;52.134;5.500;2023-12-22T03:54:19;6.50;;;0.90;;
71042;SDS011;58696;52.134;5.500;2023-12-22T03:56:45;1.08;;;0.38;;
71042;SDS011;58696;52.134;5.500;2023-12-22T03:59:15;1.20;;;0.20;;
71042;SDS011;58696;52.134;5.500;2023-12-22T04:01:50;0.75;;;0.60;;
71042;SDS011;58696;52.134;5.500;2023-12-22T04:04:19;3.90;;;0.55;;
71042;SDS011;58696;52.134;5.500;2023-12-22T04:06:48;6.38;;;1.05;;
71042;SDS011;58696;52.134;5.500;2023-12-22T04:09:15;6.45;;;1.88;;
71042;SDS011;58696;52.134;5.500;2023-12-22T04:11:42;8.95;;;1.15;;
71042;SDS011;58696;52.134;5.500;2023-12-22T04:14:09;7.30;;;1.25;;
71042;SDS011;58696;52.134;5.500;2023-12-22T04:16:38;1.13;;;0.28;;
71042;SDS011;58696;52.134;5.500;2023-12-22T04:19:05;7.00;;;1.58;;
71042;SDS011;58696;52.134;5.500;2023-12-22T04:21:37;11.68;;;2.13;;
71042;SDS011;58696;52.134;5.500;2023-12-22T04:24:07;9.93;;;1.20;;
71042;SDS011;58696;52.134;5.500;2023-12-22T04:26:36;6.97;;;1.05;;
71042;SDS011;58696;52.134;5.500;2023-12-22T04:29:03;6.15;;;1.48;;
71042;SDS011;58696;52.134;5.500;2023-12-22T04:31:32;4.38;;;0.98;;
71042;SDS011;58696;52.134;5.500;2023-12-22T04:33:58;4.75;;;1.13;;
71042;SDS011;58696;52.134;5.500;2023-12-22T04:36:25;4.28;;;0.98;;
71042;SDS011;58696;52.134;5.500;2023-12-22T04:38:52;7.90;;;1.75;;
71042;SDS011;58696;52.134;5.500;2023-12-22T04:41:23;9.10;;;1.95;;
71042;SDS011;58696;52.134;5.500;2023-12-22T04:43:50;4.85;;;1.75;;
71042;SDS011;58696;52.134;5.500;2023-12-22T04:46:19;7.13;;;1.35;;
71042;SDS011;58696;52.134;5.500;2023-12-22T04:48:46;13.63;;;1.40;;
71042;SDS011;58696;52.134;5.500;2023-12-22T04:51:12;8.02;;;1.70;;
71042;SDS011;58696;52.134;5.500;2023-12-22T04:53:43;7.43;;;1.65;;
71042;SDS011;58696;52.134;5.500;2023-12-22T04:56:09;9.95;;;1.98;;
71042;SDS011;58696;52.134;5.500;2023-12-22T04:58:38;3.65;;;1.25;;
71042;SDS011;58696;52.134;5.500;2023-12-22T05:01:07;7.55;;;1.80;;
71042;SDS011;58696;52.134;5.500;2023-12-22T05:03:37;7.25;;;1.65;;
71042;SDS011;58696;52.134;5.500;2023-12-22T05:06:08;9.60;;;1.98;;
71042;SDS011;58696;52.134;5.500;2023-12-22T05:08:35;11.52;;;2.05;;
71042;SDS011;58696;52.134;5.500;2023-12-22T05:11:04;15.23;;;1.90;;
71042;SDS011;58696;52.134;5.500;2023-12-22T05:13:33;10.52;;;2.55;;
71042;SDS011;58696;52.134;5.500;2023-12-22T05:16:00;11.23;;;1.95;;
71042;SDS011;58696;52.134;5.500;2023-12-22T05:18:26;10.40;;;1.90;;
71042;SDS011;58696;52.134;5.500;2023-12-22T05:20:55;15.23;;;1.70;;
71042;SDS011;58696;52.134;5.500;2023-12-22T05:23:22;11.70;;;2.08;;
71042;SDS011;58696;52.134;5.500;2023-12-22T05:25:49;13.35;;;2.22;;
71042;SDS011;58696;52.134;5.500;2023-12-22T05:28:15;13.93;;;2.00;;
71042;SDS011;58696;52.134;5.500;2023-12-22T05:30:45;15.10;;;2.88;;
71042;SDS011;58696;52.134;5.500;2023-12-22T05:33:11;14.82;;;2.10;;
71042;SDS011;58696;52.134;5.500;2023-12-22T05:35:38;11.55;;;2.20;;
71042;SDS011;58696;52.134;5.500;2023-12-22T05:38:06;12.98;;;2.45;;
71042;SDS011;58696;52.134;5.500;2023-12-22T05:40:33;20.75;;;2.88;;
71042;SDS011;58696;52.134;5.500;2023-12-22T05:43:02;8.98;;;1.98;;
71042;SDS011;58696;52.134;5.500;2023-12-22T05:45:28;8.70;;;1.55;;
71042;SDS011;58696;52.134;5.500;2023-12-22T05:47:57;12.52;;;2.10;;
71042;SDS011;58696;52.134;5.500;2023-12-22T05:50:24;7.32;;;1.70;;
71042;SDS011;58696;52.134;5.500;2023-12-22T05:52:53;6.43;;;1.70;;
71042;SDS011;58696;52.134;5.500;2023-12-22T05:55:20;3.80;;;1.02;;
71042;SDS011;58696;52.134;5.500;2023-12-22T05:57:47;7.97;;;1.10;;
71042;SDS011;58696;52.134;5.500;2023-12-22T06:00:14;13.70;;;2.20;;
71042;SDS011;58696;52.134;5.500;2023-12-22T06:02:41;4.53;;;1.30;;
71042;SDS011;58696;52.134;5.500;2023-12-22T06:05:08;13.77;;;2.25;;
71042;SDS011;58696;52.134;5.500;2023-12-22T06:07:37;7.65;;;2.13;;
71042;SDS011;58696;52.134;5.500;2023-12-22T06:10:04;7.88;;;1.27;;
71042;SDS011;58696;52.134;5.500;2023-12-22T06:12:31;7.80;;;2.03;;
71042;SDS011;58696;52.134;5.500;2023-12-22T06:15:00;5.78;;;1.73;;
71042;SDS011;58696;52.134;5.500;2023-12-22T06:17:29;4.72;;;1.42;;
71042;SDS011;58696;52.134;5.500;2023-12-22T06:19:56;7.25;;;1.52;;
71042;SDS011;58696;52.134;5.500;2023-12-22T06:22:23;14.85;;;2.00;;
71042;SDS011;58696;52.134;5.500;2023-12-22T06:24:52;8.73;;;2.00;;
71042;SDS011;58696;52.134;5.500;2023-12-22T06:27:19;8.52;;;1.65;;
71042;SDS011;58696;52.134;5.500;2023-12-22T06:29:48;3.20;;;1.02;;
71042;SDS011;58696;52.134;5.500;2023-12-22T06:32:17;5.43;;;1.25;;
71042;SDS011;58696;52.134;5.500;2023-12-22T06:34:43;9.32;;;1.77;;
71042;SDS011;58696;52.134;5.500;2023-12-22T06:37:13;8.27;;;1.60;;
71042;SDS011;58696;52.134;5.500;2023-12-22T06:39:40;11.30;;;1.48;;
71042;SDS011;58696;52.134;5.500;2023-12-22T06:42:06;12.43;;;2.05;;
71042;SDS011;58696;52.134;5.500;2023-12-22T06:44:37;8.00;;;1.67;;
71042;SDS011;58696;52.134;5.500;2023-12-22T06:47:04;12.13;;;1.38;;
71042;SDS011;58696;52.134;5.500;2023-12-22T06:49:31;5.15;;;1.55;;
71042;SDS011;58696;52.134;5.500;2023-12-22T06:52:01;8.50;;;2.03;;
71042;SDS011;58696;52.134;5.500;2023-12-22T06:54:30;16.00;;;2.97;;
71042;SDS011;58696;52.134;5.500;2023-12-22T06:56:57;8.50;;;1.88;;
71042;SDS011;58696;52.134;5.500;2023-12-22T06:59:23;11.90;;;1.88;;
71042;SDS011;58696;52.134;5.500;2023-12-22T07:01:52;14.25;;;2.53;;
71042;SDS011;58696;52.134;5.500;2023-12-22T07:04:38;10.43;;;1.75;;
71042;SDS011;58696;52.134;5.500;2023-12-22T07:07:05;8.18;;;2.45;;
71042;SDS011;58696;52.134;5.500;2023-12-22T07:09:32;10.85;;;2.47;;
71042;SDS011;58696;52.134;5.500;2023-12-22T07:12:03;8.68;;;1.85;;
71042;SDS011;58696;52.134;5.500;2023-12-22T07:14:30;15.02;;;2.38;;
71042;SDS011;58696;52.134;5.500;2023-12-22T07:16:57;13.80;;;2.47;;
71042;SDS011;58696;52.134;5.500;2023-12-22T07:19:27;10.20;;;2.42;;
71042;SDS011;58696;52.134;5.500;2023-12-22T07:21:56;10.80;;;2.15;;
71042;SDS011;58696;52.134;5.500;2023-12-22T07:24:23;16.08;;;2.10;;
71042;SDS011;58696;52.134;5.500;2023-12-22T07:26:56;19.55;;;2.10;;
71042;SDS011;58696;52.134;5.500;2023-12-22T07:29:25;13.77;;;2.38;;
71042;SDS011;58696;52.134;5.500;2023-12-22T07:31:57;13.77;;;2.58;;
71042;SDS011;58696;52.134;5.500;2023-12-22T07:34:24;15.93;;;3.25;;
71042;SDS011;58696;52.134;5.500;2023-12-22T07:36:56;20.40;;;3.05;;
71042;SDS011;58696;52.134;5.500;2023-12-22T07:39:32;17.40;;;2.67;;
71042;SDS011;58696;52.134;5.500;2023-12-22T07:42:01;9.23;;;2.25;;
71042;SDS011;58696;52.134;5.500;2023-12-22T07:44:27;15.52;;;3.20;;
71042;SDS011;58696;52.134;5.500;2023-12-22T07:47:00;27.35;;;4.03;;
71042;SDS011;58696;52.134;5.500;2023-12-22T07:49:29;14.65;;;3.33;;
71042;SDS011;58696;52.134;5.500;2023-12-22T07:51:57;14.57;;;3.08;;
71042;SDS011;58696;52.134;5.500;2023-12-22T07:54:25;14.75;;;2.80;;
71042;SDS011;58696;52.134;5.500;2023-12-22T07:56:54;18.40;;;2.25;;
71042;SDS011;58696;52.134;5.500;2023-12-22T07:59:23;7.30;;;1.65;;
71042;SDS011;58696;52.134;5.500;2023-12-22T08:01:57;6.00;;;1.67;;
71042;SDS011;58696;52.134;5.500;2023-12-22T08:04:24;8.80;;;2.22;;
71042;SDS011;58696;52.134;5.500;2023-12-22T08:06:51;8.05;;;2.25;;
71042;SDS011;58696;52.134;5.500;2023-12-22T08:09:18;8.43;;;1.98;;
71042;SDS011;58696;52.134;5.500;2023-12-22T08:11:45;9.68;;;2.05;;
71042;SDS011;58696;52.134;5.500;2023-12-22T08:14:13;14.05;;;2.58;;
71042;SDS011;58696;52.134;5.500;2023-12-22T08:16:45;11.88;;;3.17;;
71042;SDS011;58696;52.134;5.500;2023-12-22T08:19:11;9.02;;;2.50;;
71042;SDS011;58696;52.134;5.500;2023-12-22T08:21:44;13.68;;;2.03;;
71042;SDS011;58696;52.134;5.500;2023-12-22T08:24:13;13.15;;;2.75;;
71042;SDS011;58696;52.134;5.500;2023-12-22T08:26:51;10.73;;;3.08;;
71042;SDS011;58696;52.134;5.500;2023-12-22T08:29:18;10.32;;;2.28;;
71042;SDS011;58696;52.134;5.500;2023-12-22T08:31:47;7.75;;;1.65;;
71042;SDS011;58696;52.134;5.500;2023-12-22T08:34:14;17.35;;;3.63;;
71042;SDS011;58696;52.134;5.500;2023-12-22T08:36:44;21.52;;;2.85;;
71042;SDS011;58696;52.134;5.500;2023-12-22T08:39:13;16.40;;;2.80;;
71042;SDS011;58696;52.134;5.500;2023-12-22T08:41:40;9.98;;;2.22;;
71042;SDS011;58696;52.134;5.500;2023-12-22T08:44:10;11.77;;;2.13;;
71042;SDS011;58696;52.134;5.500;2023-12-22T08:46:41;10.82;;;2.72;;
71042;SDS011;58696;52.134;5.500;2023-12-22T08:49:08;13.02;;;1.60;;
71042;SDS011;58696;52.134;5.500;2023-12-22T08:51:35;9.15;;;2.20;;
71042;SDS011;58696;52.134;5.500;2023-12-22T08:54:03;12.80;;;2.08;;
71042;SDS011;58696;52.134;5.500;2023-12-22T08:56:30;7.10;;;1.67;;
71042;SDS011;58696;52.134;5.500;2023-12-22T08:59:01;9.93;;;1.50;;
71042;SDS011;58696;52.134;5.500;2023-12-22T09:01:28;7.15;;;1.42;;
71042;SDS011;58696;52.134;5.500;2023-12-22T09:03:59;6.78;;;2.17;;
71042;SDS011;58696;52.134;5.500;2023-12-22T09:06:28;5.00;;;1.35;;
71042;SDS011;58696;52.134;5.500;2023-12-22T09:08:57;7.45;;;1.50;;
71042;SDS011;58696;52.134;5.500;2023-12-22T09:11:24;5.88;;;1.27;;
71042;SDS011;58696;52.134;5.500;2023-12-22T09:13:53;9.65;;;2.08;;
71042;SDS011;58696;52.134;5.500;2023-12-22T09:16:23;7.95;;;1.85;;
71042;SDS011;58696;52.134;5.500;2023-12-22T09:18:53;9.63;;;1.90;;
71042;SDS011;58696;52.134;5.500;2023-12-22T09:21:22;12.23;;;2.28;;
71042;SDS011;58696;52.134;5.500;2023-12-22T09:23:51;12.38;;;2.53;;
71042;SDS011;58696;52.134;5.500;2023-12-22T09:26:18;9.73;;;2.08;;
71042;SDS011;58696;52.134;5.500;2023-12-22T09:28:45;6.82;;;1.30;;
71042;SDS011;58696;52.134;5.500;2023-12-22T09:31:16;6.97;;;1.20;;
71042;SDS011;58696;52.134;5.500;2023-12-22T09:33:45;3.28;;;0.80;;
71042;SDS011;58696;52.134;5.500;2023-12-22T09:36:15;6.63;;;0.90;;
71042;SDS011;58696;52.134;5.500;2023-12-22T09:38:44;1.45;;;0.63;;
71042;SDS011;58696;52.134;5.500;2023-12-22T09:41:16;0.82;;;0.28;;
71042;SDS011;58696;52.134;5.500;2023-12-22T09:43:43;1.10;;;0.40;;
71042;SDS011;58696;52.134;5.500;2023-12-22T09:46:18;0.75;;;0.28;;
71042;SDS011;58696;52.134;5.500;2023-12-22T09:48:48;0.75;;;0.50;;
71042;SDS011;58696;52.134;5.500;2023-12-22T09:51:18;2.08;;;0.50;;
71042;SDS011;58696;52.134;5.500;2023-12-22T09:53:48;3.38;;;0.60;;
71042;SDS011;58696;52.134;5.500;2023-12-22T09:56:16;1.20;;;0.40;;
71042;SDS011;58696;52.134;5.500;2023-12-22T09:58:46;4.30;;;0.70;;
71042;SDS011;58696;52.134;5.500;2023-12-22T10:01:14;1.88;;;0.50;;
71042;SDS011;58696;52.134;5.500;2023-12-22T10:03:41;2.10;;;0.68;;
71042;SDS011;58696;52.134;5.500;2023-12-22T10:06:11;0.93;;;0.38;;
71042;SDS011;58696;52.134;5.500;2023-12-22T10:08:38;2.90;;;0.77;;
71042;SDS011;58696;52.134;5.500;2023-12-22T10:11:07;0.57;;;0.35;;
71042;SDS011;58696;52.134;5.500;2023-12-22T10:13:37;6.70;;;1.55;;
71042;SDS011;58696;52.134;5.500;2023-12-22T10:16:08;7.80;;;1.05;;
71042;SDS011;58696;52.134;5.500;2023-12-22T10:18:35;11.38;;;1.52;;
71042;SDS011;58696;52.134;5.500;2023-12-22T10:21:02;4.88;;;0.80;;
71042;SDS011;58696;52.134;5.500;2023-12-22T10:23:29;14.32;;;1.95;;
71042;SDS011;58696;52.134;5.500;2023-12-22T10:25:57;4.60;;;1.27;;
71042;SDS011;58696;52.134;5.500;2023-12-22T10:28:27;8.23;;;1.50;;
71042;SDS011;58696;52.134;5.500;2023-12-22T10:30:54;6.13;;;1.40;;
71042;SDS011;58696;52.134;5.500;2023-12-22T10:33:24;6.97;;;1.02;;
71042;SDS011;58696;52.134;5.500;2023-12-22T10:35:50;7.78;;;1.50;;
71042;SDS011;58696;52.134;5.500;2023-12-22T10:38:19;11.30;;;1.70;;
71042;SDS011;58696;52.134;5.500;2023-12-22T10:40:46;5.75;;;1.27;;
71042;SDS011;58696;52.134;5.500;2023-12-22T10:43:16;9.52;;;1.92;;
71042;SDS011;58696;52.134;5.500;2023-12-22T10:45:43;6.38;;;1.60;;
71042;SDS011;58696;52.134;5.500;2023-12-22T10:48:10;7.93;;;1.08;;
71042;SDS011;58696;52.134;5.500;2023-12-22T10:50:39;0.80;;;0.32;;
71042;SDS011;58696;52.134;5.500;2023-12-22T10:53:09;4.65;;;1.25;;
71042;SDS011;58696;52.134;5.500;2023-12-22T10:55:43;3.65;;;1.10;;
71042;SDS011;58696;52.134;5.500;2023-12-22T10:58:16;1.92;;;0.70;;
71042;SDS011;58696;52.134;5.500;2023-12-22T11:00:44;4.93;;;1.02;;
71042;SDS011;58696;52.134;5.500;2023-12-22T11:03:13;1.10;;;0.52;;
71042;SDS011;58696;52.134;5.500;2023-12-22T11:05:46;4.00;;;1.25;;
71042;SDS011;58696;52.134;5.500;2023-12-22T11:08:17;5.72;;;1.52;;
71042;SDS011;58696;52.134;5.500;2023-12-22T11:10:50;4.85;;;0.93;;
71042;SDS011;58696;52.134;5.500;2023-12-22T11:13:25;4.63;;;1.20;;
71042;SDS011;58696;52.134;5.500;2023-12-22T11:15:53;3.65;;;1.10;;
71042;SDS011;58696;52.134;5.500;2023-12-22T11:18:24;5.15;;;1.88;;
71042;SDS011;58696;52.134;5.500;2023-12-22T11:20:55;5.53;;;0.82;;
71042;SDS011;58696;52.134;5.500;2023-12-22T11:23:23;6.03;;;1.07;;
71042;SDS011;58696;52.134;5.500;2023-12-22T11:28:20;1.90;;;0.30;;
71042;SDS011;58696;52.134;5.500;2023-12-22T11:30:50;5.00;;;1.00;;
71042;SDS011;58696;52.134;5.500;2023-12-22T11:33:25;5.82;;;0.82;;
71042;SDS011;58696;52.134;5.500;2023-12-22T11:35:54;1.23;;;0.30;;
71042;SDS011;58696;52.134;5.500;2023-12-22T11:38:22;8.10;;;1.50;;
71042;SDS011;58696;52.134;5.500;2023-12-22T11:40:49;8.23;;;0.98;;
71042;SDS011;58696;52.134;5.500;2023-12-22T11:43:19;15.02;;;1.77;;
71042;SDS011;58696;52.134;5.500;2023-12-22T11:45:51;5.45;;;1.30;;
71042;SDS011;58696;52.134;5.500;2023-12-22T11:48:18;5.25;;;1.00;;
71042;SDS011;58696;52.134;5.500;2023-12-22T11:50:47;3.45;;;0.90;;
71042;SDS011;58696;52.134;5.500;2023-12-22T11:53:17;3.50;;;1.20;;
71042;SDS011;58696;52.134;5.500;2023-12-22T11:55:58;2.33;;;0.60;;
71042;SDS011;58696;52.134;5.500;2023-12-22T11:58:41;4.57;;;1.00;;
71042;SDS011;58696;52.134;5.500;2023-12-22T12:01:25;3.70;;;0.90;;
71042;SDS011;58696;52.134;5.500;2023-12-22T12:03:59;2.45;;;0.70;;
71042;SDS011;58696;52.134;5.500;2023-12-22T12:08:58;13.98;;;1.27;;
71042;SDS011;58696;52.134;5.500;2023-12-22T12:14:32;3.45;;;1.15;;
71042;SDS011;58696;52.134;5.500;2023-12-22T12:17:08;3.30;;;1.27;;
71042;SDS011;58696;52.134;5.500;2023-12-22T12:19:38;9.55;;;1.40;;
71042;SDS011;58696;52.134;5.500;2023-12-22T12:22:08;8.63;;;1.35;;
71042;SDS011;58696;52.134;5.500;2023-12-22T12:24:40;1.98;;;0.52;;
71042;SDS011;58696;52.134;5.500;2023-12-22T12:27:08;4.22;;;0.80;;
71042;SDS011;58696;52.134;5.500;2023-12-22T12:29:35;4.20;;;0.80;;
71042;SDS011;58696;52.134;5.500;2023-12-22T12:32:03;6.43;;;0.90;;
71042;SDS011;58696;52.134;5.500;2023-12-22T12:34:31;8.50;;;1.13;;
71042;SDS011;58696;52.134;5.500;2023-12-22T12:37:01;6.60;;;1.25;;
71042;SDS011;58696;52.134;5.500;2023-12-22T12:39:33;3.20;;;0.43;;
71042;SDS011;58696;52.134;5.500;2023-12-22T12:42:06;8.73;;;1.33;;
71042;SDS011;58696;52.134;5.500;2023-12-22T12:44:35;6.35;;;1.15;;
71042;SDS011;58696;52.134;5.500;2023-12-22T12:47:37;5.93;;;1.27;;
71042;SDS011;58696;52.134;5.500;2023-12-22T12:50:00;8.20;;;1.40;;
71042;SDS011;58696;52.134;5.500;2023-12-22T12:52:29;5.33;;;1.03;;
71042;SDS011;58696;52.134;5.500;2023-12-22T12:54:56;10.85;;;1.48;;
71042;SDS011;58696;52.134;5.500;2023-12-22T12:57:27;6.95;;;1.30;;
71042;SDS011;58696;52.134;5.500;2023-12-22T12:59:54;4.50;;;1.02;;
71042;SDS011;58696;52.134;5.500;2023-12-22T13:02:21;4.15;;;1.30;;
71042;SDS011;58696;52.134;5.500;2023-12-22T13:04:49;3.92;;;1.40;;
71042;SDS011;58696;52.134;5.500;2023-12-22T13:07:25;6.85;;;0.65;;
71042;SDS011;58696;52.134;5.500;2023-12-22T13:09:55;6.68;;;1.15;;
71042;SDS011;58696;52.134;5.500;2023-12-22T13:12:26;3.72;;;0.50;;
71042;SDS011;58696;52.134;5.500;2023-12-22T13:14:53;2.55;;;0.80;;
71042;SDS011;58696;52.134;5.500;2023-12-22T13:17:20;8.23;;;1.00;;
71042;SDS011;58696;52.134;5.500;2023-12-22T13:19:48;6.65;;;1.85;;
71042;SDS011;58696;52.134;5.500;2023-12-22T13:22:19;4.13;;;1.02;;
71042;SDS011;58696;52.134;5.500;2023-12-22T13:24:54;14.27;;;0.68;;
71042;SDS011;58696;52.134;5.500;2023-12-22T13:27:23;5.97;;;1.80;;
71042;SDS011;58696;52.134;5.500;2023-12-22T13:29:49;5.18;;;1.27;;
71042;SDS011;58696;52.134;5.500;2023-12-22T13:32:19;8.38;;;1.50;;
71042;SDS011;58696;52.134;5.500;2023-12-22T13:34:55;2.60;;;1.10;;
71042;SDS011;58696;52.134;5.500;2023-12-22T13:37:22;3.15;;;0.60;;
71042;SDS011;58696;52.134;5.500;2023-12-22T13:39:56;7.18;;;0.98;;
71042;SDS011;58696;52.134;5.500;2023-12-22T13:42:26;2.55;;;0.80;;
71042;SDS011;58696;52.134;5.500;2023-12-22T13:44:53;4.32;;;1.02;;
71042;SDS011;58696;52.134;5.500;2023-12-22T13:47:20;6.22;;;1.05;;
71042;SDS011;58696;52.134;5.500;2023-12-22T13:49:51;4.07;;;1.02;;
71042;SDS011;58696;52.134;5.500;2023-12-22T13:52:25;11.43;;;1.45;;
71042;SDS011;58696;52.134;5.500;2023-12-22T13:54:59;8.05;;;1.20;;
71042;SDS011;58696;52.134;5.500;2023-12-22T13:57:27;1.40;;;0.50;;
71042;SDS011;58696;52.134;5.500;2023-12-22T13:59:56;4.97;;;1.17;;
71042;SDS011;58696;52.134;5.500;2023-12-22T14:02:23;3.40;;;0.80;;
71042;SDS011;58696;52.134;5.500;2023-12-22T14:04:52;6.05;;;1.13;;
71042;SDS011;58696;52.134;5.500;2023-12-22T14:07:20;4.10;;;1.20;;
71042;SDS011;58696;52.134;5.500;2023-12-22T14:09:49;9.98;;;1.38;;
71042;SDS011;58696;52.134;5.500;2023-12-22T14:12:16;7.95;;;1.17;;
71042;SDS011;58696;52.134;5.500;2023-12-22T14:14:54;4.00;;;0.90;;
71042;SDS011;58696;52.134;5.500;2023-12-22T14:17:21;12.35;;;1.45;;
71042;SDS011;58696;52.134;5.500;2023-12-22T14:19:50;4.18;;;1.27;;
71042;SDS011;58696;52.134;5.500;2023-12-22T14:22:16;4.63;;;1.42;;
71042;SDS011;58696;52.134;5.500;2023-12-22T14:24:43;4.80;;;1.17;;
71042;SDS011;58696;52.134;5.500;2023-12-22T14:27:09;0.77;;;0.60;;
71042;SDS011;58696;52.134;5.500;2023-12-22T14:29:39;6.70;;;1.33;;
71042;SDS011;58696;52.134;5.500;2023-12-22T14:32:09;10.60;;;2.15;;
71042;SDS011;58696;52.134;5.500;2023-12-22T14:34:41;3.83;;;1.50;;
71042;SDS011;58696;52.134;5.500;2023-12-22T14:37:08;3.95;;;1.23;;
71042;SDS011;58696;52.134;5.500;2023-12-22T14:39:37;9.70;;;2.38;;
71042;SDS011;58696;52.134;5.500;2023-12-22T14:42:04;8.73;;;1.95;;
71042;SDS011;58696;52.134;5.500;2023-12-22T14:44:31;4.72;;;1.27;;
71042;SDS011;58696;52.134;5.500;2023-12-22T14:46:57;8.18;;;1.75;;
71042;SDS011;58696;52.134;5.500;2023-12-22T14:49:24;2.72;;;0.85;;
71042;SDS011;58696;52.134;5.500;2023-12-22T14:51:51;4.43;;;1.15;;
71042;SDS011;58696;52.134;5.500;2023-12-22T14:54:20;5.93;;;1.45;;
71042;SDS011;58696;52.134;5.500;2023-12-22T14:56:49;13.50;;;3.67;;
71042;SDS011;58696;52.134;5.500;2023-12-22T14:59:17;6.95;;;0.82;;
71042;SDS011;58696;52.134;5.500;2023-12-22T15:01:46;3.83;;;1.40;;
71042;SDS011;58696;52.134;5.500;2023-12-22T15:04:15;8.32;;;1.58;;
71042;SDS011;58696;52.134;5.500;2023-12-22T15:06:45;5.70;;;1.42;;
71042;SDS011;58696;52.134;5.500;2023-12-22T15:09:26;3.70;;;1.00;;